Hlavní strana
METAR-TAF:

METAR-TAF

Letiště :

Røst, Norsko

zeměpisná šířka: 67-31N, zeměpisná délka: 012-06E, výška: 4 m

Aktuální stav počasí

Zpráva byla vytvořena před 4 hodinami a 36 minutami, v 08:20 UTC
Severní vítr 26 kt
Teplota 0°C
Vlhkost vzduchu 69%
Tlak 995 hPa
Viditelnost 10 km a více
Polojasno ve výšce 1500 ft, Cumulonimbus.
Oblačno až skoro zataženo ve výšce 4000 ft
přeháňky v blízkosti

METAR: ENRS 290820Z 01026KT 9999 VCSH SCT015CB BKN040 M00/M05 Q0995

Čas: 13:56 (12:56 UTC)


TAF: chybějící

Stav a předpovědi počasí z více než 4 000 letišť (zprávy METAR a TAF).

Červené a žluté tečky na mapě představují dostupné meteorologické stanice.

Když kurzor umístíte na tečku, zobrazí se název stanice.

Pak kliknutím zobrazíte stav a předpověď počasí.

Chcete-li změnit mapu, kliknutím na zelené tlačítko se znaménkem +mapu přiblížíte, kliknutím na zelené tlačítko se znaménkem – mapu oddálíte a kliknutím na zelené šipky přejdete na sousední mapy.


METAR-TAF: